Hutchinson, Kansas
Current Conditions -  °F | °C
As of 7:52 AM on Thursday 23 Oct 2014 (Local Time) from KHUT Reporting Station
Overcast Overcast  
Wind Chill: 16°   Ceiling: 2900
Heat Index: 16°   Visibility: 9mi
Dew Point: 14°   Wind: 5mph
Humidity: 87%   Direction: 160°SSE
Pressure: 30.08"   Gusts: NA
Location:  38.06°N, 97.93°W
Report Text: KHUT 231252Z 16004KT 9SM OVC029 16/14 A3008 RMK AO2 SLP172 T01610139
Loading
Personal Weather Stations






























Interactive Weather Map
Tropical Storm Tracking
New forecast layout! Learn more

10-Day Weather Forecast

Advertisements
Track Severe Weather on mobile